createdAt,value
2018-01-07T00:00:01.492Z,1033.82
2018-01-07T00:01:01.477Z,1033.82
2018-01-07T00:02:01.471Z,1033.88
2018-01-07T00:03:01.455Z,1033.89
2018-01-07T00:04:01.440Z,1033.94
2018-01-07T00:05:01.428Z,1033.92
2018-01-07T00:06:01.412Z,1033.92
2018-01-07T00:07:01.400Z,1033.96
2018-01-07T00:08:01.390Z,1033.98
2018-01-07T00:09:01.377Z,1033.97
2018-01-07T00:10:01.360Z,1034.02
2018-01-07T00:11:01.351Z,1033.95
2018-01-07T00:12:01.338Z,1033.98
2018-01-07T00:13:01.325Z,1033.96
2018-01-07T00:14:01.313Z,1033.98
2018-01-07T00:15:01.297Z,1033.94
2018-01-07T00:16:01.284Z,1033.98
2018-01-07T00:17:01.270Z,1033.99
2018-01-07T00:18:01.257Z,1034.01
2018-01-07T00:19:01.247Z,1034.02
2018-01-07T00:20:01.234Z,1034
2018-01-07T00:21:01.221Z,1034.06
2018-01-07T00:22:01.209Z,1034.05
2018-01-07T00:23:01.195Z,1034.16
2018-01-07T00:24:01.182Z,1034.17
2018-01-07T00:25:01.170Z,1034.16
2018-01-07T00:26:01.154Z,1034.18
2018-01-07T00:27:01.144Z,1034.25
2018-01-07T00:28:01.127Z,1034.31
2018-01-07T00:29:01.116Z,1034.24
2018-01-07T00:30:01.102Z,1034.28
2018-01-07T00:31:01.089Z,1034.32
2018-01-07T00:32:01.081Z,1034.32
2018-01-07T00:33:01.063Z,1034.31
2018-01-07T00:34:01.051Z,1034.34
2018-01-07T00:35:01.039Z,1034.29
2018-01-07T00:36:01.024Z,1034.34
2018-01-07T00:37:01.014Z,1034.4
2018-01-07T00:38:00.998Z,1034.35
2018-01-07T00:39:00.986Z,1034.35
2018-01-07T00:40:00.973Z,1034.42
2018-01-07T00:41:00.961Z,1034.41
2018-01-07T00:42:00.946Z,1034.43
2018-01-07T00:43:00.933Z,1034.41
2018-01-07T00:44:00.924Z,1034.42
2018-01-07T00:45:00.910Z,1034.43
2018-01-07T00:46:00.893Z,1034.41
2018-01-07T00:47:00.897Z,1034.51
2018-01-07T00:48:00.870Z,1034.55
2018-01-07T00:49:00.856Z,1034.55
2018-01-07T00:50:00.842Z,1034.52
2018-01-07T00:51:00.832Z,1034.56
2018-01-07T00:52:00.820Z,1034.61
2018-01-07T00:53:00.808Z,1034.62
2018-01-07T00:54:00.790Z,1034.69
2018-01-07T00:55:00.778Z,1034.85
2018-01-07T00:56:00.765Z,1034.73
2018-01-07T00:57:00.753Z,1034.81
2018-01-07T00:58:00.741Z,1034.85
2018-01-07T00:59:00.725Z,1034.89
2018-01-07T01:00:00.714Z,1034.84
2018-01-07T01:01:00.699Z,1034.87
2018-01-07T01:02:00.689Z,1034.89
2018-01-07T01:03:00.682Z,1034.86
2018-01-07T01:04:00.661Z,1034.89
2018-01-07T01:05:00.647Z,1035.02
2018-01-07T01:06:00.635Z,1034.97
2018-01-07T01:07:00.622Z,1034.98
2018-01-07T01:08:00.612Z,1034.96
2018-01-07T01:09:00.596Z,1034.99
2018-01-07T01:10:00.588Z,1034.99
2018-01-07T01:11:00.574Z,1035.07
2018-01-07T01:12:00.559Z,1035.11
2018-01-07T01:13:00.543Z,1035.05
2018-01-07T01:14:00.531Z,1035.1
2018-01-07T01:15:00.521Z,1035.17
2018-01-07T01:16:00.504Z,1035.2
2018-01-07T01:17:00.492Z,1035.27
2018-01-07T01:18:00.479Z,1035.26
2018-01-07T01:19:00.465Z,1035.26
2018-01-07T01:20:00.455Z,1035.25
2018-01-07T01:21:00.442Z,1035.25
2018-01-07T01:22:00.430Z,1035.24
2018-01-07T01:23:00.424Z,1035.31
2018-01-07T01:24:00.429Z,1035.3
2018-01-07T01:25:00.387Z,1035.33
2018-01-07T01:26:00.377Z,1035.48
2018-01-07T01:27:00.359Z,1035.41
2018-01-07T01:28:00.347Z,1035.42
2018-01-07T01:29:00.337Z,1035.39
2018-01-07T01:30:00.323Z,1035.49
2018-01-07T01:31:00.312Z,1035.53
2018-01-07T01:32:00.298Z,1035.56
2018-01-07T01:33:00.285Z,1035.56
2018-01-07T01:34:00.268Z,1035.58
2018-01-07T01:35:00.258Z,1035.62
2018-01-07T01:36:00.242Z,1035.61
2018-01-07T01:37:00.232Z,1035.65
2018-01-07T01:38:00.216Z,1035.62
2018-01-07T01:39:00.206Z,1035.61
2018-01-07T01:40:00.195Z,1035.58
2018-01-07T01:41:00.179Z,1035.62
2018-01-07T01:42:00.165Z,1035.61
2018-01-07T01:43:00.159Z,1035.64
2018-01-07T01:44:00.139Z,1035.7
2018-01-07T01:45:00.126Z,1035.69
2018-01-07T01:46:00.114Z,1035.66
2018-01-07T01:47:00.101Z,1035.82
2018-01-07T01:48:00.085Z,1035.75
2018-01-07T01:49:00.072Z,1035.81
2018-01-07T01:50:00.064Z,1035.82
2018-01-07T01:51:00.047Z,1035.88
2018-01-07T01:52:00.047Z,1035.88
2018-01-07T01:53:00.026Z,1035.96
2018-01-07T01:54:00.012Z,1035.92
2018-01-07T01:54:59.993Z,1035.98
2018-01-07T01:55:59.980Z,1035.98
2018-01-07T01:56:59.966Z,1035.95
2018-01-07T01:57:59.954Z,1035.94
2018-01-07T01:58:59.939Z,1036.03
2018-01-07T01:59:59.929Z,1035.97
2018-01-07T02:00:59.914Z,1036.03
2018-01-07T02:01:59.904Z,1035.99
2018-01-07T02:02:59.887Z,1036.04
2018-01-07T02:03:59.874Z,1036.03
2018-01-07T02:04:59.864Z,1036.05
2018-01-07T02:05:59.848Z,1036.04
2018-01-07T02:06:59.834Z,1036.06
2018-01-07T02:07:59.821Z,1036.1
2018-01-07T02:08:59.808Z,1036.09
2018-01-07T02:09:59.794Z,1036.19
2018-01-07T02:10:59.781Z,1036.19
2018-01-07T02:11:59.771Z,1036.15
2018-01-07T02:12:59.758Z,1036.19
2018-01-07T02:13:59.742Z,1036.15
2018-01-07T02:14:59.729Z,1036.24
2018-01-07T02:15:59.719Z,1036.24
2018-01-07T02:16:59.703Z,1036.23
2018-01-07T02:17:59.691Z,1036.19
2018-01-07T02:18:59.681Z,1036.23
2018-01-07T02:19:59.663Z,1036.26
2018-01-07T02:20:59.653Z,1036.21
2018-01-07T02:21:59.636Z,1036.26
2018-01-07T02:22:59.625Z,1036.26
2018-01-07T02:23:59.610Z,1036.33
2018-01-07T02:24:59.597Z,1036.34
2018-01-07T02:25:59.586Z,1036.35
2018-01-07T02:26:59.574Z,1036.4
2018-01-07T02:27:59.558Z,1036.37
2018-01-07T02:28:59.568Z,1036.42
2018-01-07T02:29:59.531Z,1036.43
2018-01-07T02:30:59.528Z,1036.41
2018-01-07T02:31:59.508Z,1036.41
2018-01-07T02:32:59.492Z,1036.44
2018-01-07T02:33:59.482Z,1036.44
2018-01-07T02:34:59.469Z,1036.39
2018-01-07T02:35:59.454Z,1036.39
2018-01-07T02:36:59.440Z,1036.43
2018-01-07T02:37:59.426Z,1036.46
2018-01-07T02:38:59.413Z,1036.4
2018-01-07T02:39:59.399Z,1036.43
2018-01-07T02:40:59.386Z,1036.45
2018-01-07T02:41:59.376Z,1036.46
2018-01-07T02:42:59.361Z,1036.5
2018-01-07T02:43:59.346Z,1036.51
2018-01-07T02:44:59.334Z,1036.46
2018-01-07T02:45:59.324Z,1036.53
2018-01-07T02:46:59.350Z,1036.54
2018-01-07T02:47:59.300Z,1036.51
2018-01-07T02:48:59.288Z,1036.56
2018-01-07T02:49:59.272Z,1036.62
2018-01-07T02:50:59.256Z,1036.59
2018-01-07T02:51:59.245Z,1036.69
2018-01-07T02:52:59.231Z,1036.72
2018-01-07T02:53:59.218Z,1036.76
2018-01-07T02:54:59.203Z,1036.86
2018-01-07T02:55:59.191Z,1036.81
2018-01-07T02:56:59.177Z,1037.06
2018-01-07T02:57:59.164Z,1036.95
2018-01-07T02:58:59.150Z,1037.07
2018-01-07T02:59:59.137Z,1037.04
2018-01-07T03:00:59.126Z,1037
2018-01-07T03:01:59.113Z,1037.07
2018-01-07T03:02:59.098Z,1037.04
2018-01-07T03:03:59.085Z,1037.07
2018-01-07T03:04:59.074Z,1037.06
2018-01-07T03:05:59.058Z,1037.09
2018-01-07T03:06:59.048Z,1037.13
2018-01-07T03:07:59.039Z,1037.13
2018-01-07T03:08:59.019Z,1037.12
2018-01-07T03:09:59.006Z,1037.19
2018-01-07T03:10:58.995Z,1037.21
2018-01-07T03:11:58.979Z,1037.23
2018-01-07T03:12:58.973Z,1037.3
2018-01-07T03:13:58.953Z,1037.39
2018-01-07T03:14:58.940Z,1037.41
2018-01-07T03:15:58.929Z,1037.42
2018-01-07T03:16:58.916Z,1037.33
2018-01-07T03:17:58.903Z,1037.47
2018-01-07T03:18:58.888Z,1037.49
2018-01-07T03:19:58.872Z,1037.46
2018-01-07T03:20:58.863Z,1037.47
2018-01-07T03:21:58.847Z,1037.53
2018-01-07T03:22:58.833Z,1037.53
2018-01-07T03:23:58.823Z,1037.6
2018-01-07T03:24:58.806Z,1037.52
2018-01-07T03:25:58.793Z,1037.59
2018-01-07T03:26:58.783Z,1037.56
2018-01-07T03:27:58.769Z,1037.63
2018-01-07T03:28:58.753Z,1037.63
2018-01-07T03:29:58.740Z,1037.6
2018-01-07T03:30:58.727Z,1037.7
2018-01-07T03:31:58.720Z,1037.73
2018-01-07T03:32:58.700Z,1037.71
2018-01-07T03:33:58.685Z,1037.8
2018-01-07T03:34:58.675Z,1037.84
2018-01-07T03:35:58.662Z,1037.85
2018-01-07T03:36:58.649Z,1038.06
2018-01-07T03:37:58.632Z,1037.95
2018-01-07T03:38:58.621Z,1037.91
2018-01-07T03:39:58.608Z,1038.03
2018-01-07T03:40:58.593Z,1038.03
2018-01-07T03:41:58.580Z,1038.25
2018-01-07T03:42:58.564Z,1038.19
2018-01-07T03:43:58.551Z,1038.18
2018-01-07T03:44:58.539Z,1038.4
2018-01-07T03:45:58.524Z,1038.35
2018-01-07T03:46:58.510Z,1038.29
2018-01-07T03:47:58.500Z,1038.4
2018-01-07T03:48:58.483Z,1038.27
2018-01-07T03:49:58.469Z,1038.36
2018-01-07T03:50:58.458Z,1038.48
2018-01-07T03:51:58.445Z,1038.41
2018-01-07T03:52:58.431Z,1038.48
2018-01-07T03:53:58.414Z,1038.43
2018-01-07T03:54:58.404Z,1038.42
2018-01-07T03:55:58.387Z,1038.48
2018-01-07T03:56:58.373Z,1038.51
2018-01-07T03:57:58.362Z,1038.52
2018-01-07T03:58:58.347Z,1038.5
2018-01-07T03:59:58.335Z,1038.54
2018-01-07T04:00:58.318Z,1038.53
2018-01-07T04:01:58.310Z,1038.57
2018-01-07T04:02:58.294Z,1038.56
2018-01-07T04:03:58.279Z,1038.55
2018-01-07T04:04:58.263Z,1038.52
2018-01-07T04:05:58.253Z,1038.57
2018-01-07T04:06:58.235Z,1038.66
2018-01-07T04:07:58.222Z,1038.56
2018-01-07T04:08:58.212Z,1038.57
2018-01-07T04:09:58.195Z,1038.61
2018-01-07T04:10:58.180Z,1038.63
2018-01-07T04:11:58.170Z,1038.72
2018-01-07T04:12:58.154Z,1038.66
2018-01-07T04:13:58.140Z,1038.7
2018-01-07T04:14:58.126Z,1038.67
2018-01-07T04:15:58.115Z,1038.78
2018-01-07T04:16:58.100Z,1038.72
2018-01-07T04:17:58.085Z,1038.76
2018-01-07T04:18:58.070Z,1038.81
2018-01-07T04:19:58.060Z,1038.86
2018-01-07T04:20:58.043Z,1038.84
2018-01-07T04:21:58.032Z,1038.8
2018-01-07T04:22:58.016Z,1038.91
2018-01-07T04:23:58.002Z,1038.91
2018-01-07T04:24:57.991Z,1038.89
2018-01-07T04:25:57.974Z,1038.92
2018-01-07T04:26:57.963Z,1039.01
2018-01-07T04:27:57.946Z,1039.02
2018-01-07T04:28:57.936Z,1039.03
2018-01-07T04:29:57.918Z,1039.03
2018-01-07T04:30:57.906Z,1039.06
2018-01-07T04:31:57.894Z,1039.07
2018-01-07T04:32:57.880Z,1039.12
2018-01-07T04:33:57.864Z,1039.13
2018-01-07T04:34:57.853Z,1039.15
2018-01-07T04:35:57.840Z,1039.18
2018-01-07T04:36:57.823Z,1039.15
2018-01-07T04:37:57.809Z,1039.18
2018-01-07T04:38:57.798Z,1039.25
2018-01-07T04:39:57.784Z,1039.21
2018-01-07T04:40:57.767Z,1039.2
2018-01-07T04:41:57.755Z,1039.26
2018-01-07T04:42:57.740Z,1039.27
2018-01-07T04:43:57.728Z,1039.28
2018-01-07T04:44:57.715Z,1039.2
2018-01-07T04:45:57.698Z,1039.25
2018-01-07T04:46:57.685Z,1039.24
2018-01-07T04:47:57.672Z,1039.25
2018-01-07T04:48:57.658Z,1039.43
2018-01-07T04:49:57.647Z,1039.37
2018-01-07T04:50:57.630Z,1039.32
2018-01-07T04:51:57.616Z,1039.46
2018-01-07T04:52:57.606Z,1039.4
2018-01-07T04:53:57.592Z,1039.43
2018-01-07T04:54:57.574Z,1039.44
2018-01-07T04:55:57.564Z,1039.48
2018-01-07T04:56:57.548Z,1039.49
2018-01-07T04:57:57.533Z,1039.58
2018-01-07T04:58:57.521Z,1039.61
2018-01-07T04:59:57.510Z,1039.6
2018-01-07T05:00:57.496Z,1039.62
2018-01-07T05:01:57.481Z,1039.67
2018-01-07T05:02:57.481Z,1039.72
2018-01-07T05:03:57.454Z,1039.71
2018-01-07T05:04:57.437Z,1039.71
2018-01-07T05:05:57.425Z,1039.78
2018-01-07T05:06:57.409Z,1039.77
2018-01-07T05:07:57.399Z,1039.78
2018-01-07T05:08:57.384Z,1039.77
2018-01-07T05:09:57.371Z,1039.86
2018-01-07T05:10:57.354Z,1039.86
2018-01-07T05:11:57.341Z,1039.88
2018-01-07T05:12:57.329Z,1039.91
2018-01-07T05:13:57.315Z,1039.91
2018-01-07T05:14:57.303Z,1039.96
2018-01-07T05:15:57.288Z,1039.95
2018-01-07T05:16:57.271Z,1039.93
2018-01-07T05:17:57.260Z,1039.94
2018-01-07T05:18:57.246Z,1039.97
2018-01-07T05:19:57.230Z,1039.99
2018-01-07T05:20:57.218Z,1040
2018-01-07T05:21:57.201Z,1040
2018-01-07T05:22:57.191Z,1040.08
2018-01-07T05:23:57.174Z,1040.11
2018-01-07T05:24:57.160Z,1040.13
2018-01-07T05:25:57.153Z,1040.14
2018-01-07T05:26:57.132Z,1040.14
2018-01-07T05:27:57.121Z,1040.13
2018-01-07T05:28:57.107Z,1040.22
2018-01-07T05:29:57.091Z,1040.24
2018-01-07T05:30:57.076Z,1040.28
2018-01-07T05:31:57.066Z,1040.27
2018-01-07T05:32:57.048Z,1040.26
2018-01-07T05:33:57.036Z,1040.33
2018-01-07T05:34:57.024Z,1040.35
2018-01-07T05:35:57.010Z,1040.42
2018-01-07T05:36:56.994Z,1040.45
2018-01-07T05:37:56.983Z,1040.49
2018-01-07T05:38:56.968Z,1040.53
2018-01-07T05:39:56.952Z,1040.57
2018-01-07T05:40:56.938Z,1040.58
2018-01-07T05:41:56.924Z,1040.68
2018-01-07T05:42:56.912Z,1040.65
2018-01-07T05:43:56.897Z,1040.66
2018-01-07T05:44:56.884Z,1040.7
2018-01-07T05:45:56.883Z,1040.67
2018-01-07T05:46:56.854Z,1040.72
2018-01-07T05:47:56.840Z,1040.72
2018-01-07T05:48:56.830Z,1040.77
2018-01-07T05:49:56.813Z,1040.79
2018-01-07T05:50:56.799Z,1040.76
2018-01-07T05:51:56.785Z,1040.79
2018-01-07T05:52:56.771Z,1040.77
2018-01-07T05:53:56.760Z,1040.83
2018-01-07T05:54:56.746Z,1040.91
2018-01-07T05:55:56.730Z,1040.9
2018-01-07T05:56:56.721Z,1041
2018-01-07T05:57:56.701Z,1040.97
2018-01-07T05:58:56.687Z,1041
2018-01-07T05:59:56.675Z,1041.07
2018-01-07T06:00:56.659Z,1041.08
2018-01-07T06:01:56.645Z,1041.02
2018-01-07T06:02:56.634Z,1041.09
2018-01-07T06:03:56.620Z,1041.03
2018-01-07T06:04:56.607Z,1041.06
2018-01-07T06:05:56.590Z,1041.11
2018-01-07T06:06:56.579Z,1041.09
2018-01-07T06:07:56.561Z,1041.06
2018-01-07T06:08:56.547Z,1041.07
2018-01-07T06:09:56.537Z,1041.17
2018-01-07T06:10:56.520Z,1041.23
2018-01-07T06:11:56.505Z,1041.4
2018-01-07T06:12:56.491Z,1041.64
2018-01-07T06:13:56.477Z,1041.48
2018-01-07T06:14:56.469Z,1041.67
2018-01-07T06:15:56.451Z,1041.51
2018-01-07T06:16:56.475Z,1041.57
2018-01-07T06:17:56.422Z,1041.58
2018-01-07T06:18:56.406Z,1041.66
2018-01-07T06:19:56.393Z,1041.71
2018-01-07T06:20:56.379Z,1041.8
2018-01-07T06:21:56.365Z,1041.83
2018-01-07T06:22:56.353Z,1041.75
2018-01-07T06:23:56.337Z,1041.83
2018-01-07T06:24:56.326Z,1041.84
2018-01-07T06:25:56.312Z,1041.94
2018-01-07T06:26:56.297Z,1041.87
2018-01-07T06:27:56.284Z,1041.93
2018-01-07T06:28:56.268Z,1041.97
2018-01-07T06:29:56.254Z,1042.06
2018-01-07T06:30:56.239Z,1042.09
2018-01-07T06:31:56.224Z,1042.12
2018-01-07T06:32:56.208Z,1042.12
2018-01-07T06:33:56.197Z,1042.18
2018-01-07T06:34:56.184Z,1042.12
2018-01-07T06:35:56.169Z,1042.16
2018-01-07T06:36:56.152Z,1042.29
2018-01-07T06:37:56.137Z,1042.28
2018-01-07T06:38:56.127Z,1042.18
2018-01-07T06:39:56.109Z,1042.32
2018-01-07T06:40:56.097Z,1042.29
2018-01-07T06:41:56.082Z,1042.41
2018-01-07T06:42:56.066Z,1042.57
2018-01-07T06:43:56.051Z,1042.39
2018-01-07T06:44:56.040Z,1042.47
2018-01-07T06:45:56.027Z,1042.54
2018-01-07T06:46:56.012Z,1042.53
2018-01-07T06:47:55.996Z,1042.6
2018-01-07T06:48:55.980Z,1042.56
2018-01-07T06:49:55.966Z,1042.6
2018-01-07T06:50:55.954Z,1042.68
2018-01-07T06:51:55.939Z,1042.69
2018-01-07T06:52:55.925Z,1042.67
2018-01-07T06:53:55.908Z,1042.7
2018-01-07T06:54:55.893Z,1042.72
2018-01-07T06:55:55.881Z,1042.75
2018-01-07T06:56:55.865Z,1042.7
2018-01-07T06:57:55.851Z,1042.69
2018-01-07T06:58:55.839Z,1042.88
2018-01-07T06:59:55.822Z,1042.79
2018-01-07T07:00:55.807Z,1042.84
2018-01-07T07:01:55.799Z,1042.81
2018-01-07T07:02:55.780Z,1042.85
2018-01-07T07:03:55.767Z,1042.85
2018-01-07T07:04:55.750Z,1042.97
2018-01-07T07:05:55.737Z,1042.92
2018-01-07T07:06:55.720Z,1042.96
2018-01-07T07:07:55.706Z,1043.09
2018-01-07T07:08:55.692Z,1043.15
2018-01-07T07:09:55.676Z,1043.16
2018-01-07T07:10:55.666Z,1043.2
2018-01-07T07:11:55.651Z,1043.32
2018-01-07T07:12:55.634Z,1043.24
2018-01-07T07:13:55.620Z,1043.29
2018-01-07T07:14:55.604Z,1043.39
2018-01-07T07:15:55.593Z,1043.47
2018-01-07T07:16:55.578Z,1043.36
2018-01-07T07:17:55.564Z,1043.42
2018-01-07T07:18:55.549Z,1043.38
2018-01-07T07:19:55.538Z,1043.47
2018-01-07T07:20:55.520Z,1043.49
2018-01-07T07:21:55.503Z,1043.55
2018-01-07T07:22:55.488Z,1043.52
2018-01-07T07:23:55.474Z,1043.58
2018-01-07T07:24:55.462Z,1043.51
2018-01-07T07:25:55.447Z,1043.71
2018-01-07T07:26:55.432Z,1043.6
2018-01-07T07:27:55.417Z,1043.53
2018-01-07T07:28:55.400Z,1043.83
2018-01-07T07:29:55.388Z,1043.72
2018-01-07T07:30:55.374Z,1043.64
2018-01-07T07:31:55.356Z,1043.65
2018-01-07T07:32:55.344Z,1043.68
2018-01-07T07:33:55.327Z,1043.72
2018-01-07T07:34:55.312Z,1043.75
2018-01-07T07:35:55.298Z,1043.77
2018-01-07T07:36:55.284Z,1043.86
2018-01-07T07:37:55.271Z,1043.91
2018-01-07T07:38:55.257Z,1043.84
2018-01-07T07:39:55.238Z,1043.84
2018-01-07T07:40:55.227Z,1043.89
2018-01-07T07:41:55.210Z,1043.91
2018-01-07T07:42:55.195Z,1043.94
2018-01-07T07:43:55.179Z,1043.95
2018-01-07T07:44:55.168Z,1044.09
2018-01-07T07:45:55.156Z,1044.15
2018-01-07T07:46:55.135Z,1044.03
2018-01-07T07:47:55.124Z,1044.06
2018-01-07T07:48:55.106Z,1044.07
2018-01-07T07:49:55.094Z,1044.21
2018-01-07T07:50:55.077Z,1044.15
2018-01-07T07:51:55.062Z,1044.18
2018-01-07T07:52:55.052Z,1044.22
2018-01-07T07:53:55.032Z,1044.2
2018-01-07T07:54:55.017Z,1044.24
2018-01-07T07:55:55.003Z,1044.24
2018-01-07T07:56:54.989Z,1044.46
2018-01-07T07:57:54.974Z,1044.41
2018-01-07T07:58:54.960Z,1044.51
2018-01-07T07:59:54.945Z,1044.39
2018-01-07T08:00:54.933Z,1044.73
2018-01-07T08:01:54.919Z,1044.62
2018-01-07T08:02:54.904Z,1044.5
2018-01-07T08:03:54.890Z,1044.44
2018-01-07T08:04:54.870Z,1044.45
2018-01-07T08:05:54.861Z,1044.4
2018-01-07T08:06:54.842Z,1044.47
2018-01-07T08:07:54.828Z,1044.44
2018-01-07T08:08:54.813Z,1044.46
2018-01-07T08:09:54.801Z,1044.51
2018-01-07T08:10:54.785Z,1044.48
2018-01-07T08:11:54.768Z,1044.44
2018-01-07T08:12:54.757Z,1044.49
2018-01-07T08:13:54.739Z,1044.4
2018-01-07T08:14:54.724Z,1044.42
2018-01-07T08:15:54.712Z,1044.63
2018-01-07T08:16:54.696Z,1044.47
2018-01-07T08:17:54.684Z,1044.61
2018-01-07T08:18:54.667Z,1044.44
2018-01-07T08:19:54.653Z,1044.64
2018-01-07T08:20:54.636Z,1044.84
2018-01-07T08:21:54.622Z,1044.89
2018-01-07T08:22:54.608Z,1044.83
2018-01-07T08:23:54.595Z,1044.81
2018-01-07T08:24:54.577Z,1044.78
2018-01-07T08:25:54.563Z,1044.83
2018-01-07T08:26:54.548Z,1044.68
2018-01-07T08:27:54.534Z,1044.7
2018-01-07T08:28:54.518Z,1044.73
2018-01-07T08:29:54.507Z,1044.74
2018-01-07T08:30:54.489Z,1044.82
2018-01-07T08:31:54.476Z,1044.85
2018-01-07T08:32:54.460Z,1044.78
2018-01-07T08:33:54.448Z,1044.79
2018-01-07T08:34:54.433Z,1044.79
2018-01-07T08:35:54.416Z,1044.69
2018-01-07T08:36:54.404Z,1044.65
2018-01-07T08:37:54.387Z,1044.63
2018-01-07T08:38:54.371Z,1044.49
2018-01-07T08:39:54.356Z,1044.57
2018-01-07T08:40:54.341Z,1044.68
2018-01-07T08:41:54.327Z,1044.65
2018-01-07T08:42:54.312Z,1044.77
2018-01-07T08:43:54.301Z,1044.72
2018-01-07T08:44:54.282Z,1044.68
2018-01-07T08:45:54.269Z,1044.81
2018-01-07T08:46:54.253Z,1044.65
2018-01-07T08:47:54.239Z,1044.81
2018-01-07T08:48:54.226Z,1044.74
2018-01-07T08:49:54.209Z,1044.75
2018-01-07T08:50:54.197Z,1044.8
2018-01-07T08:51:54.182Z,1044.82
2018-01-07T08:52:54.165Z,1044.84
2018-01-07T08:53:54.150Z,1044.92
2018-01-07T08:54:54.136Z,1044.79
2018-01-07T08:55:54.121Z,1044.79
2018-01-07T08:56:54.110Z,1044.87
2018-01-07T08:57:54.091Z,1044.85
2018-01-07T08:58:54.080Z,1044.77
2018-01-07T08:59:54.067Z,1044.78
2018-01-07T09:00:54.051Z,1044.86
2018-01-07T09:01:54.033Z,1044.82
2018-01-07T09:02:54.021Z,1044.83
2018-01-07T09:03:54.007Z,1044.81
2018-01-07T09:04:53.989Z,1044.86
2018-01-07T09:05:53.978Z,1044.92
2018-01-07T09:06:53.959Z,1044.91
2018-01-07T09:07:53.945Z,1044.93
2018-01-07T09:08:53.931Z,1044.93
2018-01-07T09:09:53.919Z,1044.95
2018-01-07T09:10:53.904Z,1045
2018-01-07T09:11:53.890Z,1045.02
2018-01-07T09:12:53.875Z,1045
2018-01-07T09:13:53.861Z,1045.02
2018-01-07T09:14:53.874Z,1045.07
2018-01-07T09:15:53.832Z,1045.11
2018-01-07T09:16:53.816Z,1045.06
2018-01-07T09:17:53.800Z,1045.09
2018-01-07T09:18:53.789Z,1045.11
2018-01-07T09:19:53.772Z,1045.13
2018-01-07T09:20:53.764Z,1045.11
2018-01-07T09:21:53.751Z,1045.09
2018-01-07T09:22:53.729Z,1045.11
2018-01-07T09:23:53.716Z,1045.12
2018-01-07T09:24:53.700Z,1045.18
2018-01-07T09:25:53.690Z,1045.17
2018-01-07T09:26:53.674Z,1045.27
2018-01-07T09:27:53.660Z,1045.15
2018-01-07T09:28:53.642Z,1045.18
2018-01-07T09:29:53.628Z,1045.19
2018-01-07T09:30:53.617Z,1045.12
2018-01-07T09:31:53.601Z,1045.15
2018-01-07T09:32:53.586Z,1045.19
2018-01-07T09:33:53.573Z,1045.26
2018-01-07T09:34:53.561Z,1045.38
2018-01-07T09:35:53.551Z,1045.29
2018-01-07T09:36:53.529Z,1045.16
2018-01-07T09:37:53.543Z,1045.27
2018-01-07T09:38:53.504Z,1045.22
2018-01-07T09:39:53.487Z,1045.17
2018-01-07T09:40:53.476Z,1045.13
2018-01-07T09:41:53.476Z,1045.18
2018-01-07T09:42:53.461Z,1045.17
2018-01-07T09:43:53.438Z,1045.24
2018-01-07T09:44:53.416Z,1045.32
2018-01-07T09:45:53.402Z,1045.4
2018-01-07T09:46:53.389Z,1045.36
2018-01-07T09:47:53.377Z,1045.45
2018-01-07T09:48:53.360Z,1045.36
2018-01-07T09:49:53.356Z,1045.32
2018-01-07T09:50:53.339Z,1045.22
2018-01-07T09:51:53.320Z,1045.28
2018-01-07T09:52:53.307Z,1045.2
2018-01-07T09:53:53.289Z,1045.25
2018-01-07T09:54:53.277Z,1045.14
2018-01-07T09:55:53.262Z,1045.23
2018-01-07T09:56:53.250Z,1045.29
2018-01-07T09:57:53.236Z,1045.44
2018-01-07T09:58:53.220Z,1045.28
2018-01-07T09:59:53.209Z,1045.22
2018-01-07T10:00:53.196Z,1045.34
2018-01-07T10:01:53.178Z,1045.35
2018-01-07T10:02:53.163Z,1045.36
2018-01-07T10:03:53.150Z,1045.25
2018-01-07T10:04:53.139Z,1045.3
2018-01-07T10:05:53.126Z,1045.33
2018-01-07T10:06:53.112Z,1045.37
2018-01-07T10:07:53.097Z,1045.31
2018-01-07T10:08:53.079Z,1045.32
2018-01-07T10:09:53.069Z,1045.37
2018-01-07T10:10:53.055Z,1045.34
2018-01-07T10:11:53.042Z,1045.34
2018-01-07T10:12:53.027Z,1045.42
2018-01-07T10:13:53.010Z,1045.23
2018-01-07T10:14:53.000Z,1045.26
2018-01-07T10:15:52.982Z,1045.28
2018-01-07T10:16:52.971Z,1045.5
2018-01-07T10:17:52.957Z,1045.21
2018-01-07T10:18:52.941Z,1045.26
2018-01-07T10:19:52.930Z,1045.2
2018-01-07T10:20:52.919Z,1045.2
2018-01-07T10:21:52.903Z,1045.19
2018-01-07T10:22:52.886Z,1045.3
2018-01-07T10:23:52.871Z,1045.29
2018-01-07T10:24:52.864Z,1045.28
2018-01-07T10:25:52.857Z,1045.4
2018-01-07T10:26:52.833Z,1045.32
2018-01-07T10:27:52.823Z,1045.26
2018-01-07T10:28:52.802Z,1045.31
2018-01-07T10:29:52.788Z,1045.24
2018-01-07T10:30:52.780Z,1045.22
2018-01-07T10:31:52.761Z,1045.17
2018-01-07T10:32:52.747Z,1045.12
2018-01-07T10:33:52.735Z,1045.13
2018-01-07T10:34:52.722Z,1045.12
2018-01-07T10:35:52.709Z,1045.22
2018-01-07T10:36:52.695Z,1045.2
2018-01-07T10:37:52.678Z,1045.17
2018-01-07T10:38:52.668Z,1045.19
2018-01-07T10:39:52.654Z,1045.18
2018-01-07T10:40:52.638Z,1045.15
2018-01-07T10:41:52.624Z,1045.09
2018-01-07T10:42:52.614Z,1045.09
2018-01-07T10:43:52.599Z,1045.09
2018-01-07T10:44:52.584Z,1045.3
2018-01-07T10:45:52.569Z,1045.29
2018-01-07T10:46:52.557Z,1045.29
2018-01-07T10:47:52.545Z,1045.41
2018-01-07T10:48:52.528Z,1045.49
2018-01-07T10:49:52.522Z,1045.51
2018-01-07T10:50:52.506Z,1045.53
2018-01-07T10:51:52.488Z,1045.58
2018-01-07T10:52:52.476Z,1045.58
2018-01-07T10:53:52.463Z,1045.52
2018-01-07T10:54:52.446Z,1045.51
2018-01-07T10:55:52.436Z,1045.52
2018-01-07T10:56:52.441Z,1045.43
2018-01-07T10:57:52.408Z,1045.41
2018-01-07T10:58:52.395Z,1045.41
2018-01-07T10:59:52.379Z,1045.45
2018-01-07T11:00:52.364Z,1045.43
2018-01-07T11:01:52.350Z,1045.5
2018-01-07T11:02:52.345Z,1045.37
2018-01-07T11:03:52.324Z,1045.33
2018-01-07T11:04:52.312Z,1045.47
2018-01-07T11:05:52.298Z,1045.35
2018-01-07T11:06:52.286Z,1045.4
2018-01-07T11:07:52.273Z,1045.49
2018-01-07T11:08:52.260Z,1045.33
2018-01-07T11:09:52.246Z,1045.39
2018-01-07T11:10:52.233Z,1045.4
2018-01-07T11:11:52.218Z,1045.35
2018-01-07T11:12:52.203Z,1045.49
2018-01-07T11:13:52.194Z,1045.3
2018-01-07T11:14:52.190Z,1045.21
2018-01-07T11:15:52.164Z,1045.29
2018-01-07T11:16:52.150Z,1045.19
2018-01-07T11:17:52.169Z,1045.18
2018-01-07T11:18:52.142Z,1045.26
2018-01-07T11:19:52.108Z,1045.24
2018-01-07T11:20:52.100Z,1045.3
2018-01-07T11:21:52.085Z,1045.29
2018-01-07T11:22:52.068Z,1045.31
2018-01-07T11:23:52.058Z,1045.3
2018-01-07T11:24:52.042Z,1045.31
2018-01-07T11:25:52.028Z,1045.33
2018-01-07T11:26:52.015Z,1045.36
2018-01-07T11:27:52.002Z,1045.34
2018-01-07T11:28:51.991Z,1045.31
2018-01-07T11:29:51.979Z,1045.33
2018-01-07T11:30:51.962Z,1045.3
2018-01-07T11:31:51.948Z,1045.39
2018-01-07T11:32:51.935Z,1045.3
2018-01-07T11:33:51.921Z,1045.42
2018-01-07T11:34:51.909Z,1045.36
2018-01-07T11:35:51.906Z,1045.35
2018-01-07T11:36:51.892Z,1045.34
2018-01-07T11:37:51.872Z,1045.23
2018-01-07T11:38:51.857Z,1045.25
2018-01-07T11:39:51.842Z,1045.28
2018-01-07T11:40:51.836Z,1045.18
2018-01-07T11:41:51.817Z,1045.17
2018-01-07T11:42:51.806Z,1045.11
2018-01-07T11:43:51.790Z,1045.04
2018-01-07T11:44:51.776Z,1045.08
2018-01-07T11:45:51.762Z,1045.12
2018-01-07T11:46:51.753Z,1045.13
2018-01-07T11:47:51.736Z,1045.28
2018-01-07T11:48:51.726Z,1045.13
2018-01-07T11:49:51.715Z,1045.15
2018-01-07T11:50:51.696Z,1045.13
2018-01-07T11:51:51.684Z,1045.15
2018-01-07T11:52:51.670Z,1045.09
2018-01-07T11:53:51.664Z,1045.17
2018-01-07T11:54:51.643Z,1045.12
2018-01-07T11:55:51.638Z,1045.12
2018-01-07T11:56:51.620Z,1045.07
2018-01-07T11:57:51.613Z,1045.11
2018-01-07T11:58:51.590Z,1045.17
2018-01-07T11:59:51.580Z,1045.16
2018-01-07T12:00:51.569Z,1045.26
2018-01-07T12:01:51.555Z,1045.24
2018-01-07T12:02:51.540Z,1045.33
2018-01-07T12:03:51.532Z,1045.3
2018-01-07T12:04:51.515Z,1045.22
2018-01-07T12:05:51.500Z,1045.26
2018-01-07T12:06:51.485Z,1045.23
2018-01-07T12:07:51.475Z,1045.23